sensor_id;sensor_type;location;lat;lon;timestamp;temperature;humidity
78775;DHT22;68119;43.398;3.676;2023-08-12T00:00:37;20.70;73.10
78775;DHT22;68119;43.398;3.676;2023-08-12T00:03:03;20.70;73.20
78775;DHT22;68119;43.398;3.676;2023-08-12T00:05:34;20.80;73.50
78775;DHT22;68119;43.398;3.676;2023-08-12T00:08:03;20.70;73.40
78775;DHT22;68119;43.398;3.676;2023-08-12T00:10:34;20.60;73.70
78775;DHT22;68119;43.398;3.676;2023-08-12T00:13:00;20.60;74.10
78775;DHT22;68119;43.398;3.676;2023-08-12T00:15:28;20.60;74.20
78775;DHT22;68119;43.398;3.676;2023-08-12T00:18:00;20.60;74.70
78775;DHT22;68119;43.398;3.676;2023-08-12T00:20:32;20.60;74.40
78775;DHT22;68119;43.398;3.676;2023-08-12T00:23:06;20.50;74.60
78775;DHT22;68119;43.398;3.676;2023-08-12T00:25:31;20.50;74.70
78775;DHT22;68119;43.398;3.676;2023-08-12T00:27:57;20.50;74.70
78775;DHT22;68119;43.398;3.676;2023-08-12T00:30:25;20.50;74.90
78775;DHT22;68119;43.398;3.676;2023-08-12T00:32:59;20.50;74.60
78775;DHT22;68119;43.398;3.676;2023-08-12T00:35:30;20.60;74.60
78775;DHT22;68119;43.398;3.676;2023-08-12T00:37:58;20.50;74.60
78775;DHT22;68119;43.398;3.676;2023-08-12T00:40:27;20.50;74.80
78775;DHT22;68119;43.398;3.676;2023-08-12T00:42:53;20.50;74.80
78775;DHT22;68119;43.398;3.676;2023-08-12T00:45:21;20.50;74.70
78775;DHT22;68119;43.398;3.676;2023-08-12T00:47:49;20.50;75.10
78775;DHT22;68119;43.398;3.676;2023-08-12T00:50:17;20.40;75.40
78775;DHT22;68119;43.398;3.676;2023-08-12T00:52:43;20.40;75.40
78775;DHT22;68119;43.398;3.676;2023-08-12T00:55:09;20.40;75.20
78775;DHT22;68119;43.398;3.676;2023-08-12T00:57:35;20.40;75.10
78775;DHT22;68119;43.398;3.676;2023-08-12T01:00:06;20.40;75.20
78775;DHT22;68119;43.398;3.676;2023-08-12T01:02:34;20.30;75.40
78775;DHT22;68119;43.398;3.676;2023-08-12T01:05:05;20.30;75.70
78775;DHT22;68119;43.398;3.676;2023-08-12T01:07:34;20.10;76.20
78775;DHT22;68119;43.398;3.676;2023-08-12T01:10:03;20.10;76.20
78775;DHT22;68119;43.398;3.676;2023-08-12T01:12:36;20.30;75.90
78775;DHT22;68119;43.398;3.676;2023-08-12T01:15:07;20.20;75.90
78775;DHT22;68119;43.398;3.676;2023-08-12T01:17:40;20.20;76.30
78775;DHT22;68119;43.398;3.676;2023-08-12T01:20:09;20.30;75.70
78775;DHT22;68119;43.398;3.676;2023-08-12T01:22:44;20.10;76.00
78775;DHT22;68119;43.398;3.676;2023-08-12T01:25:11;20.00;76.90
78775;DHT22;68119;43.398;3.676;2023-08-12T01:27:40;20.10;76.80
78775;DHT22;68119;43.398;3.676;2023-08-12T01:30:08;20.10;76.50
78775;DHT22;68119;43.398;3.676;2023-08-12T01:32:38;20.10;76.70
78775;DHT22;68119;43.398;3.676;2023-08-12T01:37:39;20.00;77.00
78775;DHT22;68119;43.398;3.676;2023-08-12T01:40:08;20.00;76.90
78775;DHT22;68119;43.398;3.676;2023-08-12T01:42:34;20.00;76.80
78775;DHT22;68119;43.398;3.676;2023-08-12T01:45:09;20.00;77.30
78775;DHT22;68119;43.398;3.676;2023-08-12T01:47:37;20.00;77.70
78775;DHT22;68119;43.398;3.676;2023-08-12T01:50:06;20.00;77.30
78775;DHT22;68119;43.398;3.676;2023-08-12T01:52:35;20.00;77.30
78775;DHT22;68119;43.398;3.676;2023-08-12T01:55:03;20.00;77.30
78775;DHT22;68119;43.398;3.676;2023-08-12T01:57:32;20.00;77.20
78775;DHT22;68119;43.398;3.676;2023-08-12T02:00:01;19.80;77.50
78775;DHT22;68119;43.398;3.676;2023-08-12T02:02:27;19.80;77.80
78775;DHT22;68119;43.398;3.676;2023-08-12T02:04:53;19.70;77.70
78775;DHT22;68119;43.398;3.676;2023-08-12T02:07:21;19.80;77.70
78775;DHT22;68119;43.398;3.676;2023-08-12T02:09:55;19.80;77.70
78775;DHT22;68119;43.398;3.676;2023-08-12T02:12:24;19.80;78.10
78775;DHT22;68119;43.398;3.676;2023-08-12T02:14:52;19.90;77.80
78775;DHT22;68119;43.398;3.676;2023-08-12T02:17:23;19.70;78.20
78775;DHT22;68119;43.398;3.676;2023-08-12T02:19:54;19.70;79.00
78775;DHT22;68119;43.398;3.676;2023-08-12T02:22:21;19.80;78.70
78775;DHT22;68119;43.398;3.676;2023-08-12T02:24:47;19.90;78.80
78775;DHT22;68119;43.398;3.676;2023-08-12T02:27:15;19.80;79.30
78775;DHT22;68119;43.398;3.676;2023-08-12T02:29:47;19.90;81.50
78775;DHT22;68119;43.398;3.676;2023-08-12T02:32:15;20.10;83.50
78775;DHT22;68119;43.398;3.676;2023-08-12T02:34:46;20.10;83.50
78775;DHT22;68119;43.398;3.676;2023-08-12T02:37:15;20.20;83.60
78775;DHT22;68119;43.398;3.676;2023-08-12T02:39:43;20.30;83.80
78775;DHT22;68119;43.398;3.676;2023-08-12T02:42:14;20.30;84.10
78775;DHT22;68119;43.398;3.676;2023-08-12T02:44:42;20.30;83.70
78775;DHT22;68119;43.398;3.676;2023-08-12T02:47:11;20.20;83.70
78775;DHT22;68119;43.398;3.676;2023-08-12T02:49:37;20.10;83.80
78775;DHT22;68119;43.398;3.676;2023-08-12T02:52:09;20.10;84.10
78775;DHT22;68119;43.398;3.676;2023-08-12T02:54:37;20.00;84.00
78775;DHT22;68119;43.398;3.676;2023-08-12T02:57:03;20.00;84.10
78775;DHT22;68119;43.398;3.676;2023-08-12T02:59:31;20.00;84.20
78775;DHT22;68119;43.398;3.676;2023-08-12T03:02:03;20.00;84.20
78775;DHT22;68119;43.398;3.676;2023-08-12T03:04:34;20.00;84.50
78775;DHT22;68119;43.398;3.676;2023-08-12T03:07:03;20.00;84.80
78775;DHT22;68119;43.398;3.676;2023-08-12T03:09:31;20.00;84.80
78775;DHT22;68119;43.398;3.676;2023-08-12T03:12:00;20.00;84.20
78775;DHT22;68119;43.398;3.676;2023-08-12T03:14:34;19.90;83.90
78775;DHT22;68119;43.398;3.676;2023-08-12T03:17:08;20.00;83.70
78775;DHT22;68119;43.398;3.676;2023-08-12T03:19:36;20.00;84.10
78775;DHT22;68119;43.398;3.676;2023-08-12T03:22:05;20.10;84.20
78775;DHT22;68119;43.398;3.676;2023-08-12T03:24:33;20.20;84.50
78775;DHT22;68119;43.398;3.676;2023-08-12T03:27:04;20.30;84.40
78775;DHT22;68119;43.398;3.676;2023-08-12T03:29:36;20.30;84.60
78775;DHT22;68119;43.398;3.676;2023-08-12T03:32:07;20.50;84.50
78775;DHT22;68119;43.398;3.676;2023-08-12T03:34:35;20.50;84.30
78775;DHT22;68119;43.398;3.676;2023-08-12T03:37:06;20.50;84.10
78775;DHT22;68119;43.398;3.676;2023-08-12T03:39:38;20.50;83.80
78775;DHT22;68119;43.398;3.676;2023-08-12T03:42:05;20.50;83.90
78775;DHT22;68119;43.398;3.676;2023-08-12T03:44:39;20.60;83.80
78775;DHT22;68119;43.398;3.676;2023-08-12T03:47:09;20.60;83.70
78775;DHT22;68119;43.398;3.676;2023-08-12T03:49:41;20.60;83.90
78775;DHT22;68119;43.398;3.676;2023-08-12T03:52:09;20.60;83.70
78775;DHT22;68119;43.398;3.676;2023-08-12T03:54:43;20.60;83.60
78775;DHT22;68119;43.398;3.676;2023-08-12T04:04:38;20.20;84.70
78775;DHT22;68119;43.398;3.676;2023-08-12T04:07:12;20.10;84.70
78775;DHT22;68119;43.398;3.676;2023-08-12T04:09:43;20.00;84.60
78775;DHT22;68119;43.398;3.676;2023-08-12T04:12:14;20.00;84.80
78775;DHT22;68119;43.398;3.676;2023-08-12T04:14:40;20.00;84.80
78775;DHT22;68119;43.398;3.676;2023-08-12T04:17:11;20.00;84.70
78775;DHT22;68119;43.398;3.676;2023-08-12T04:19:40;20.00;84.60
78775;DHT22;68119;43.398;3.676;2023-08-12T04:22:10;20.00;84.50
78775;DHT22;68119;43.398;3.676;2023-08-12T04:24:39;19.90;84.60
78775;DHT22;68119;43.398;3.676;2023-08-12T04:27:07;19.80;84.80
78775;DHT22;68119;43.398;3.676;2023-08-12T04:29:33;19.70;85.00
78775;DHT22;68119;43.398;3.676;2023-08-12T04:32:01;19.70;85.20
78775;DHT22;68119;43.398;3.676;2023-08-12T04:34:29;19.70;85.10
78775;DHT22;68119;43.398;3.676;2023-08-12T04:37:00;19.70;85.10
78775;DHT22;68119;43.398;3.676;2023-08-12T04:39:31;19.70;85.10
78775;DHT22;68119;43.398;3.676;2023-08-12T04:42:00;19.60;85.10
78775;DHT22;68119;43.398;3.676;2023-08-12T04:44:26;19.70;85.00
78775;DHT22;68119;43.398;3.676;2023-08-12T04:46:54;19.70;84.80
78775;DHT22;68119;43.398;3.676;2023-08-12T04:49:23;19.70;85.00
78775;DHT22;68119;43.398;3.676;2023-08-12T04:51:55;19.70;84.80
78775;DHT22;68119;43.398;3.676;2023-08-12T04:54:21;19.70;84.70
78775;DHT22;68119;43.398;3.676;2023-08-12T04:56:51;19.70;84.70
78775;DHT22;68119;43.398;3.676;2023-08-12T04:59:17;19.80;84.80
78775;DHT22;68119;43.398;3.676;2023-08-12T05:01:49;19.70;85.00
78775;DHT22;68119;43.398;3.676;2023-08-12T05:04:14;19.80;85.20
78775;DHT22;68119;43.398;3.676;2023-08-12T05:06:45;19.70;85.50
78775;DHT22;68119;43.398;3.676;2023-08-12T05:09:11;19.90;85.20
78775;DHT22;68119;43.398;3.676;2023-08-12T05:11:42;19.80;85.80
78775;DHT22;68119;43.398;3.676;2023-08-12T05:14:10;19.90;85.70
78775;DHT22;68119;43.398;3.676;2023-08-12T05:16:39;20.00;85.40
78775;DHT22;68119;43.398;3.676;2023-08-12T05:19:07;20.10;84.80
78775;DHT22;68119;43.398;3.676;2023-08-12T05:21:38;20.10;84.70
78775;DHT22;68119;43.398;3.676;2023-08-12T05:24:04;20.10;84.80
78775;DHT22;68119;43.398;3.676;2023-08-12T05:26:34;20.10;85.10
78775;DHT22;68119;43.398;3.676;2023-08-12T05:29:05;20.00;85.40
78775;DHT22;68119;43.398;3.676;2023-08-12T05:31:31;20.00;85.80
78775;DHT22;68119;43.398;3.676;2023-08-12T05:33:59;20.00;86.30
78775;DHT22;68119;43.398;3.676;2023-08-12T05:36:28;20.00;86.40
78775;DHT22;68119;43.398;3.676;2023-08-12T05:39:02;20.20;85.80
78775;DHT22;68119;43.398;3.676;2023-08-12T05:41:31;20.30;85.20
78775;DHT22;68119;43.398;3.676;2023-08-12T05:43:57;20.40;84.70
78775;DHT22;68119;43.398;3.676;2023-08-12T05:46:28;20.50;84.40
78775;DHT22;68119;43.398;3.676;2023-08-12T05:48:57;20.50;84.40
78775;DHT22;68119;43.398;3.676;2023-08-12T05:51:28;20.50;84.40
78775;DHT22;68119;43.398;3.676;2023-08-12T05:53:54;20.50;84.60
78775;DHT22;68119;43.398;3.676;2023-08-12T05:56:20;20.50;84.60
78775;DHT22;68119;43.398;3.676;2023-08-12T05:58:45;20.60;84.30
78775;DHT22;68119;43.398;3.676;2023-08-12T06:01:14;20.60;83.90
78775;DHT22;68119;43.398;3.676;2023-08-12T06:03:39;20.80;83.40
78775;DHT22;68119;43.398;3.676;2023-08-12T06:06:08;20.90;82.60
78775;DHT22;68119;43.398;3.676;2023-08-12T06:08:36;21.00;82.00
78775;DHT22;68119;43.398;3.676;2023-08-12T06:11:07;21.00;81.60
78775;DHT22;68119;43.398;3.676;2023-08-12T06:13:38;21.10;81.60
78775;DHT22;68119;43.398;3.676;2023-08-12T06:16:04;21.20;81.40
78775;DHT22;68119;43.398;3.676;2023-08-12T06:18:38;21.30;81.60
78775;DHT22;68119;43.398;3.676;2023-08-12T06:21:07;21.30;81.10
78775;DHT22;68119;43.398;3.676;2023-08-12T06:23:32;21.40;81.00
78775;DHT22;68119;43.398;3.676;2023-08-12T06:26:00;21.50;80.60
78775;DHT22;68119;43.398;3.676;2023-08-12T06:28:26;21.50;80.40
78775;DHT22;68119;43.398;3.676;2023-08-12T06:30:57;21.40;79.90
78775;DHT22;68119;43.398;3.676;2023-08-12T06:33:23;21.10;80.60
78775;DHT22;68119;43.398;3.676;2023-08-12T06:35:50;21.20;80.60
78775;DHT22;68119;43.398;3.676;2023-08-12T06:38:20;21.50;80.30
78775;DHT22;68119;43.398;3.676;2023-08-12T06:40:49;21.70;79.10
78775;DHT22;68119;43.398;3.676;2023-08-12T06:43:17;21.60;79.30
78775;DHT22;68119;43.398;3.676;2023-08-12T06:45:46;21.50;78.80
78775;DHT22;68119;43.398;3.676;2023-08-12T06:48:16;21.40;79.00
78775;DHT22;68119;43.398;3.676;2023-08-12T06:50:54;21.30;79.90
78775;DHT22;68119;43.398;3.676;2023-08-12T06:53:24;21.30;80.40
78775;DHT22;68119;43.398;3.676;2023-08-12T06:55:59;21.30;80.10
78775;DHT22;68119;43.398;3.676;2023-08-12T06:58:30;21.30;80.00
78775;DHT22;68119;43.398;3.676;2023-08-12T07:00:56;21.20;79.90
78775;DHT22;68119;43.398;3.676;2023-08-12T07:03:25;21.20;80.10
78775;DHT22;68119;43.398;3.676;2023-08-12T07:05:53;21.30;80.30
78775;DHT22;68119;43.398;3.676;2023-08-12T07:08:19;21.30;80.10
78775;DHT22;68119;43.398;3.676;2023-08-12T07:10:48;21.10;80.70
78775;DHT22;68119;43.398;3.676;2023-08-12T07:13:13;21.10;80.80
78775;DHT22;68119;43.398;3.676;2023-08-12T07:15:39;21.20;80.70
78775;DHT22;68119;43.398;3.676;2023-08-12T07:18:10;21.30;80.50
78775;DHT22;68119;43.398;3.676;2023-08-12T07:20:39;21.40;80.50
78775;DHT22;68119;43.398;3.676;2023-08-12T07:23:05;21.50;79.80
78775;DHT22;68119;43.398;3.676;2023-08-12T07:25:36;21.50;79.70
78775;DHT22;68119;43.398;3.676;2023-08-12T07:28:03;21.60;79.70
78775;DHT22;68119;43.398;3.676;2023-08-12T07:30:42;21.70;79.10
78775;DHT22;68119;43.398;3.676;2023-08-12T07:33:11;21.80;78.70
78775;DHT22;68119;43.398;3.676;2023-08-12T07:35:45;21.70;78.70
78775;DHT22;68119;43.398;3.676;2023-08-12T07:38:14;21.70;78.60
78775;DHT22;68119;43.398;3.676;2023-08-12T07:40:49;21.60;79.00
78775;DHT22;68119;43.398;3.676;2023-08-12T07:43:15;21.60;79.00
78775;DHT22;68119;43.398;3.676;2023-08-12T07:45:41;21.60;79.00
78775;DHT22;68119;43.398;3.676;2023-08-12T07:48:12;21.50;79.00
78775;DHT22;68119;43.398;3.676;2023-08-12T07:50:43;21.50;79.10
78775;DHT22;68119;43.398;3.676;2023-08-12T07:53:14;21.50;79.10
78775;DHT22;68119;43.398;3.676;2023-08-12T07:55:41;21.70;78.50
78775;DHT22;68119;43.398;3.676;2023-08-12T07:58:07;21.80;78.50
78775;DHT22;68119;43.398;3.676;2023-08-12T08:00:33;21.90;77.80
78775;DHT22;68119;43.398;3.676;2023-08-12T08:03:01;21.80;77.70
78775;DHT22;68119;43.398;3.676;2023-08-12T08:05:27;21.80;78.00
78775;DHT22;68119;43.398;3.676;2023-08-12T08:07:58;21.90;77.10
78775;DHT22;68119;43.398;3.676;2023-08-12T08:10:29;22.00;76.50
78775;DHT22;68119;43.398;3.676;2023-08-12T08:12:55;22.10;76.30
78775;DHT22;68119;43.398;3.676;2023-08-12T08:15:27;22.10;76.20
78775;DHT22;68119;43.398;3.676;2023-08-12T08:17:55;22.20;75.70
78775;DHT22;68119;43.398;3.676;2023-08-12T08:20:24;22.30;76.00
78775;DHT22;68119;43.398;3.676;2023-08-12T08:22:50;22.50;75.80
78775;DHT22;68119;43.398;3.676;2023-08-12T08:25:19;22.80;74.80
78775;DHT22;68119;43.398;3.676;2023-08-12T08:27:45;22.70;74.80
78775;DHT22;68119;43.398;3.676;2023-08-12T08:30:13;22.50;75.10
78775;DHT22;68119;43.398;3.676;2023-08-12T08:32:39;22.50;75.80
78775;DHT22;68119;43.398;3.676;2023-08-12T08:35:08;22.60;74.80
78775;DHT22;68119;43.398;3.676;2023-08-12T08:37:37;22.80;74.40
78775;DHT22;68119;43.398;3.676;2023-08-12T08:40:03;22.90;73.70
78775;DHT22;68119;43.398;3.676;2023-08-12T08:42:33;22.80;73.90
78775;DHT22;68119;43.398;3.676;2023-08-12T08:45:02;22.70;73.90
78775;DHT22;68119;43.398;3.676;2023-08-12T08:47:34;22.70;74.20
78775;DHT22;68119;43.398;3.676;2023-08-12T08:50:03;22.80;74.10
78775;DHT22;68119;43.398;3.676;2023-08-12T08:52:31;23.10;73.40
78775;DHT22;68119;43.398;3.676;2023-08-12T08:55:01;23.00;73.50
78775;DHT22;68119;43.398;3.676;2023-08-12T08:57:27;23.10;73.20
78775;DHT22;68119;43.398;3.676;2023-08-12T08:59:57;23.00;73.50
78775;DHT22;68119;43.398;3.676;2023-08-12T09:02:26;23.00;73.60
78775;DHT22;68119;43.398;3.676;2023-08-12T09:04:52;22.90;73.40
78775;DHT22;68119;43.398;3.676;2023-08-12T09:07:21;22.80;73.90
78775;DHT22;68119;43.398;3.676;2023-08-12T09:09:53;22.80;73.60
78775;DHT22;68119;43.398;3.676;2023-08-12T09:12:22;22.70;74.10
78775;DHT22;68119;43.398;3.676;2023-08-12T09:14:54;22.70;74.30
78775;DHT22;68119;43.398;3.676;2023-08-12T09:17:26;22.70;74.10
78775;DHT22;68119;43.398;3.676;2023-08-12T09:19:58;22.70;74.40
78775;DHT22;68119;43.398;3.676;2023-08-12T09:22:24;22.80;74.20
78775;DHT22;68119;43.398;3.676;2023-08-12T09:24:59;22.90;73.70
78775;DHT22;68119;43.398;3.676;2023-08-12T09:27:32;22.90;73.70
78775;DHT22;68119;43.398;3.676;2023-08-12T09:30:02;23.00;73.50
78775;DHT22;68119;43.398;3.676;2023-08-12T09:32:33;23.30;72.80
78775;DHT22;68119;43.398;3.676;2023-08-12T09:35:10;23.10;72.30
78775;DHT22;68119;43.398;3.676;2023-08-12T09:37:41;23.00;73.30
78775;DHT22;68119;43.398;3.676;2023-08-12T09:40:09;23.20;72.90
78775;DHT22;68119;43.398;3.676;2023-08-12T09:42:46;23.30;72.20
78775;DHT22;68119;43.398;3.676;2023-08-12T09:45:13;23.40;72.00
78775;DHT22;68119;43.398;3.676;2023-08-12T09:47:46;23.60;71.20
78775;DHT22;68119;43.398;3.676;2023-08-12T09:50:14;23.20;72.30
78775;DHT22;68119;43.398;3.676;2023-08-12T09:52:40;23.20;71.80
78775;DHT22;68119;43.398;3.676;2023-08-12T09:55:10;23.00;72.40
78775;DHT22;68119;43.398;3.676;2023-08-12T09:57:37;23.00;72.70
78775;DHT22;68119;43.398;3.676;2023-08-12T10:00:13;23.30;71.60
78775;DHT22;68119;43.398;3.676;2023-08-12T10:02:48;23.50;71.50
78775;DHT22;68119;43.398;3.676;2023-08-12T10:05:19;23.30;70.90
78775;DHT22;68119;43.398;3.676;2023-08-12T10:07:54;23.40;71.00
78775;DHT22;68119;43.398;3.676;2023-08-12T10:10:34;23.50;70.60
78775;DHT22;68119;43.398;3.676;2023-08-12T10:13:09;23.60;70.50
78775;DHT22;68119;43.398;3.676;2023-08-12T10:15:36;23.50;70.40
78775;DHT22;68119;43.398;3.676;2023-08-12T10:18:02;23.60;70.10
78775;DHT22;68119;43.398;3.676;2023-08-12T10:20:28;24.00;69.50
78775;DHT22;68119;43.398;3.676;2023-08-12T10:22:58;24.00;69.30
78775;DHT22;68119;43.398;3.676;2023-08-12T10:25:29;24.20;68.60
78775;DHT22;68119;43.398;3.676;2023-08-12T10:27:56;23.80;69.00
78775;DHT22;68119;43.398;3.676;2023-08-12T10:30:27;23.60;69.70
78775;DHT22;68119;43.398;3.676;2023-08-12T10:32:59;23.50;69.90
78775;DHT22;68119;43.398;3.676;2023-08-12T10:35:59;23.50;69.80
78775;DHT22;68119;43.398;3.676;2023-08-12T10:38:18;23.30;70.50
78775;DHT22;68119;43.398;3.676;2023-08-12T10:40:50;23.50;69.90
78775;DHT22;68119;43.398;3.676;2023-08-12T10:43:22;23.50;70.40
78775;DHT22;68119;43.398;3.676;2023-08-12T10:45:52;23.40;70.50
78775;DHT22;68119;43.398;3.676;2023-08-12T10:48:23;23.40;70.70
78775;DHT22;68119;43.398;3.676;2023-08-12T10:50:52;23.50;70.70
78775;DHT22;68119;43.398;3.676;2023-08-12T10:53:32;24.00;69.50
78775;DHT22;68119;43.398;3.676;2023-08-12T10:56:06;24.70;66.80
78775;DHT22;68119;43.398;3.676;2023-08-12T10:58:46;25.60;65.00
78775;DHT22;68119;43.398;3.676;2023-08-12T11:01:26;25.70;63.80
78775;DHT22;68119;43.398;3.676;2023-08-12T11:03:56;25.90;62.00
78775;DHT22;68119;43.398;3.676;2023-08-12T11:06:26;25.90;63.20
78775;DHT22;68119;43.398;3.676;2023-08-12T11:08:55;26.50;61.10
78775;DHT22;68119;43.398;3.676;2023-08-12T12:07:45;30.80;54.60
78775;DHT22;68119;43.398;3.676;2023-08-12T12:10:18;33.90;46.20
78775;DHT22;68119;43.398;3.676;2023-08-12T14:07:31;34.50;45.20
78775;DHT22;68119;43.398;3.676;2023-08-12T14:10:00;34.40;47.70
78775;DHT22;68119;43.398;3.676;2023-08-12T14:12:26;35.10;46.50
78775;DHT22;68119;43.398;3.676;2023-08-12T14:14:51;35.70;46.00
78775;DHT22;68119;43.398;3.676;2023-08-12T14:27:09;34.00;48.00
78775;DHT22;68119;43.398;3.676;2023-08-12T14:29:41;31.30;53.30
78775;DHT22;68119;43.398;3.676;2023-08-12T14:32:07;32.40;51.30
78775;DHT22;68119;43.398;3.676;2023-08-12T14:34:32;33.50;49.40
78775;DHT22;68119;43.398;3.676;2023-08-12T14:37:02;32.20;51.30
78775;DHT22;68119;43.398;3.676;2023-08-12T14:39:31;32.40;51.10
78775;DHT22;68119;43.398;3.676;2023-08-12T14:41:56;33.00;50.30
78775;DHT22;68119;43.398;3.676;2023-08-12T14:44:22;32.80;51.00
78775;DHT22;68119;43.398;3.676;2023-08-12T14:46:51;33.90;49.10
78775;DHT22;68119;43.398;3.676;2023-08-12T14:49:19;32.20;51.50
78775;DHT22;68119;43.398;3.676;2023-08-12T14:51:51;31.30;53.50
78775;DHT22;68119;43.398;3.676;2023-08-12T14:54:22;30.80;54.30
78775;DHT22;68119;43.398;3.676;2023-08-12T14:56:53;31.50;53.00
78775;DHT22;68119;43.398;3.676;2023-08-12T14:59:19;29.20;57.10
78775;DHT22;68119;43.398;3.676;2023-08-12T15:01:44;28.90;58.80
78775;DHT22;68119;43.398;3.676;2023-08-12T15:04:13;29.70;56.70
78775;DHT22;68119;43.398;3.676;2023-08-12T15:06:45;30.10;56.10
78775;DHT22;68119;43.398;3.676;2023-08-12T15:09:16;30.60;55.20
78775;DHT22;68119;43.398;3.676;2023-08-12T15:11:41;29.60;57.00
78775;DHT22;68119;43.398;3.676;2023-08-12T15:14:15;28.70;59.10
78775;DHT22;68119;43.398;3.676;2023-08-12T15:16:46;28.50;59.60
78775;DHT22;68119;43.398;3.676;2023-08-12T15:19:15;27.40;62.50
78775;DHT22;68119;43.398;3.676;2023-08-12T15:21:46;27.70;61.70
78775;DHT22;68119;43.398;3.676;2023-08-12T15:24:17;27.20;62.60
78775;DHT22;68119;43.398;3.676;2023-08-12T15:26:43;27.50;62.50
78775;DHT22;68119;43.398;3.676;2023-08-12T15:29:08;27.20;62.40
78775;DHT22;68119;43.398;3.676;2023-08-12T15:31:39;26.80;63.50
78775;DHT22;68119;43.398;3.676;2023-08-12T15:34:10;27.10;62.60
78775;DHT22;68119;43.398;3.676;2023-08-12T15:36:41;27.10;62.40
78775;DHT22;68119;43.398;3.676;2023-08-12T15:39:10;26.90;62.80
78775;DHT22;68119;43.398;3.676;2023-08-12T15:41:42;27.10;62.80
78775;DHT22;68119;43.398;3.676;2023-08-12T15:44:15;27.90;61.00
78775;DHT22;68119;43.398;3.676;2023-08-12T15:46:43;28.10;60.60
78775;DHT22;68119;43.398;3.676;2023-08-12T15:49:09;27.80;61.00
78775;DHT22;68119;43.398;3.676;2023-08-12T15:51:38;27.00;62.60
78775;DHT22;68119;43.398;3.676;2023-08-12T15:54:06;26.80;63.40
78775;DHT22;68119;43.398;3.676;2023-08-12T15:56:32;26.50;63.60
78775;DHT22;68119;43.398;3.676;2023-08-12T15:59:05;25.80;65.60
78775;DHT22;68119;43.398;3.676;2023-08-12T16:01:31;25.90;66.10
78775;DHT22;68119;43.398;3.676;2023-08-12T16:04:03;25.70;66.70
78775;DHT22;68119;43.398;3.676;2023-08-12T16:06:34;25.90;66.10
78775;DHT22;68119;43.398;3.676;2023-08-12T16:09:02;25.80;66.60
78775;DHT22;68119;43.398;3.676;2023-08-12T16:11:30;25.30;67.60
78775;DHT22;68119;43.398;3.676;2023-08-12T16:13:59;25.20;68.40
78775;DHT22;68119;43.398;3.676;2023-08-12T16:16:28;26.40;65.70
78775;DHT22;68119;43.398;3.676;2023-08-12T16:18:53;26.40;64.90
78775;DHT22;68119;43.398;3.676;2023-08-12T16:21:22;25.80;66.50
78775;DHT22;68119;43.398;3.676;2023-08-12T16:23:50;25.40;67.70
78775;DHT22;68119;43.398;3.676;2023-08-12T16:26:19;25.20;68.20
78775;DHT22;68119;43.398;3.676;2023-08-12T16:28:47;25.00;69.00
78775;DHT22;68119;43.398;3.676;2023-08-12T16:31:16;25.00;68.60
78775;DHT22;68119;43.398;3.676;2023-08-12T16:33:47;25.30;68.30
78775;DHT22;68119;43.398;3.676;2023-08-12T16:36:18;25.30;68.10
78775;DHT22;68119;43.398;3.676;2023-08-12T16:38:49;25.90;66.70
78775;DHT22;68119;43.398;3.676;2023-08-12T16:41:20;25.20;67.80
78775;DHT22;68119;43.398;3.676;2023-08-12T16:43:54;24.00;71.50
78775;DHT22;68119;43.398;3.676;2023-08-12T16:46:25;23.90;72.20
78775;DHT22;68119;43.398;3.676;2023-08-12T16:48:53;24.00;71.70
78775;DHT22;68119;43.398;3.676;2023-08-12T16:51:19;24.00;71.90
78775;DHT22;68119;43.398;3.676;2023-08-12T16:53:48;24.30;71.00
78775;DHT22;68119;43.398;3.676;2023-08-12T16:56:17;24.60;70.50
78775;DHT22;68119;43.398;3.676;2023-08-12T16:58:48;24.40;70.80
78775;DHT22;68119;43.398;3.676;2023-08-12T17:01:20;24.20;71.80
78775;DHT22;68119;43.398;3.676;2023-08-12T17:03:54;24.20;71.30
78775;DHT22;68119;43.398;3.676;2023-08-12T17:06:24;23.80;72.40
78775;DHT22;68119;43.398;3.676;2023-08-12T17:08:50;23.50;72.90
78775;DHT22;68119;43.398;3.676;2023-08-12T17:11:21;23.40;73.40
78775;DHT22;68119;43.398;3.676;2023-08-12T17:13:49;23.30;74.10
78775;DHT22;68119;43.398;3.676;2023-08-12T17:16:18;23.60;73.20
78775;DHT22;68119;43.398;3.676;2023-08-12T17:18:46;23.60;73.30
78775;DHT22;68119;43.398;3.676;2023-08-12T17:21:15;23.60;73.30
78775;DHT22;68119;43.398;3.676;2023-08-12T17:23:45;23.40;73.70
78775;DHT22;68119;43.398;3.676;2023-08-12T17:26:14;23.20;74.20
78775;DHT22;68119;43.398;3.676;2023-08-12T17:28:46;23.20;74.70
78775;DHT22;68119;43.398;3.676;2023-08-12T17:31:17;23.30;74.40
78775;DHT22;68119;43.398;3.676;2023-08-12T17:33:42;23.20;74.80
78775;DHT22;68119;43.398;3.676;2023-08-12T17:36:10;23.10;75.20
78775;DHT22;68119;43.398;3.676;2023-08-12T17:38:39;22.90;75.90
78775;DHT22;68119;43.398;3.676;2023-08-12T17:41:10;22.80;76.40
78775;DHT22;68119;43.398;3.676;2023-08-12T17:43:39;22.70;76.80
78775;DHT22;68119;43.398;3.676;2023-08-12T17:46:14;22.90;76.70
78775;DHT22;68119;43.398;3.676;2023-08-12T17:48:45;23.40;75.00
78775;DHT22;68119;43.398;3.676;2023-08-12T17:51:14;23.50;74.20
78775;DHT22;68119;43.398;3.676;2023-08-12T17:53:46;23.50;74.60
78775;DHT22;68119;43.398;3.676;2023-08-12T17:56:13;23.20;75.00
78775;DHT22;68119;43.398;3.676;2023-08-12T17:58:45;23.30;75.00
78775;DHT22;68119;43.398;3.676;2023-08-12T18:01:19;23.40;74.20
78775;DHT22;68119;43.398;3.676;2023-08-12T18:03:51;23.60;73.60
78775;DHT22;68119;43.398;3.676;2023-08-12T18:06:22;23.40;73.90
78775;DHT22;68119;43.398;3.676;2023-08-12T18:08:53;23.10;75.10
78775;DHT22;68119;43.398;3.676;2023-08-12T18:11:22;22.90;75.50
78775;DHT22;68119;43.398;3.676;2023-08-12T18:13:47;22.60;76.60
78775;DHT22;68119;43.398;3.676;2023-08-12T18:18:42;22.30;77.10
78775;DHT22;68119;43.398;3.676;2023-08-12T18:21:10;22.10;78.00
78775;DHT22;68119;43.398;3.676;2023-08-12T18:23:38;22.00;78.40
78775;DHT22;68119;43.398;3.676;2023-08-12T18:26:04;21.70;79.40
78775;DHT22;68119;43.398;3.676;2023-08-12T18:28:35;21.50;80.30
78775;DHT22;68119;43.398;3.676;2023-08-12T18:31:04;21.40;80.70
78775;DHT22;68119;43.398;3.676;2023-08-12T18:33:29;21.30;81.00
78775;DHT22;68119;43.398;3.676;2023-08-12T18:35:58;21.30;81.10
78775;DHT22;68119;43.398;3.676;2023-08-12T18:38:26;21.20;81.50
78775;DHT22;68119;43.398;3.676;2023-08-12T18:40:55;21.10;81.70
78775;DHT22;68119;43.398;3.676;2023-08-12T18:43:20;21.10;81.60
78775;DHT22;68119;43.398;3.676;2023-08-12T18:45:49;21.20;81.60
78775;DHT22;68119;43.398;3.676;2023-08-12T18:48:18;21.30;81.40
78775;DHT22;68119;43.398;3.676;2023-08-12T18:50:46;21.20;81.50
78775;DHT22;68119;43.398;3.676;2023-08-12T18:53:15;21.20;81.20
78775;DHT22;68119;43.398;3.676;2023-08-12T18:55:41;21.20;81.90